• Join FlightAware (Why Join?)
  • Login
  • US Flag 
07:13AM EDT


 

Airport Tracker/Info


-or-


 

Live Flight TrackerFlight Track Log ✈ JBU33 ✈ 12-Aug-2013 ✈ KBTV - KJFK

Flight Track Log - Related Links

Times and Time Zones

All times are in EDT time to prevent confusion due to time zone crossing. See the JBU33 flight status page for this flight to view local times or setup timezone preferences in your user account.

Time Position Orientation Groundspeed Altitude Reporting Facility
EDT Latitude Longitude Course Direction KTS MPH feet Rate Location/Type
01:12PM 44.1507 -73.2685 195° South  Level FlightAware Approximate
01:12PM 44.2886 -73.1014 196° South 253 291 9,200  Level Boston Center
01:13PM 44.0712 -73.2983 195° South  Level FlightAware Approximate
01:13PM 44.1844 -73.1147 185° South 277 319 11,000  Level Boston Center
01:14PM 43.9912 -73.3252 194° South  Level FlightAware Approximate
01:14PM 44.0883 -73.1483 194° South 337 388 13,600  Level Boston Center
01:15PM 43.9113 -73.3522 196° South  Level FlightAware Approximate
01:15PM 43.9861 -73.1789 192° South 370 426 16,300  Level Boston Center
01:16PM 43.8322 -73.3839 196° South  Level FlightAware Approximate
01:16PM 43.8794 -73.2092 192° South 387 445 18,500  Level Boston Center
01:17PM 43.7735 -73.4075 196° South  Level FlightAware Approximate
01:17PM 43.7708 -73.2422 192° South 399 459 20,600  Level Boston Center
01:18PM 43.7147 -73.4310 196° South  Level FlightAware Approximate
01:18PM 43.6811 -73.2669 191° South 413 475 22,400  Level Boston Center
01:19PM 43.5558 -73.3053 193° South 413 475 24,200 1,680 Climbing Boston Center
01:20PM 43.4389 -73.3381 192° South 418 481 25,800 1,380 Climbing Boston Center
01:22PM 43.3178 -73.3703 191° South 438 504 27,200 1,020 Climbing Boston Center
01:23PM 43.1717 -73.4108 191° South 451 519 28,000 360 Climbing Boston Center
01:24PM 43.0378 -73.4486 192° South 457 526 28,000  Level Boston Center
01:25PM 42.9144 -73.4833 192° South 457 526 28,000  Level Boston Center
01:26PM 42.8081 -73.5156 193° South 445 512 28,000  Level Boston Center
01:27PM 42.6847 -73.5500 192° South 445 512 28,000  Level Boston Center
01:28PM 42.5614 -73.5844 192° South 450 518 28,000  Level Boston Center
01:29PM 42.4631 -73.6108 191° South 450 518 28,000  Level Boston Center
01:30PM 42.3022 -73.6500 190° South 450 518 28,000  Level Boston Center
01:31PM 42.1811 -73.6842 192° South 450 518 28,000  Level Boston Center
01:32PM 42.0681 -73.7208 194° South 455 524 28,000  Level Boston Center
01:33PM 41.9506 -73.7800 201° Southwest 455 524 28,000 -1,080 Level Boston Center
01:35PM 41.7286 -73.8869 200° South 432 497 24,800 -1,560 Descending New York Center
01:36PM 41.6186 -73.9456 202° Southwest 432 497 23,300 -1,620 Descending New York Center
01:37PM 41.5025 -74.0064 201° Southwest 415 478 21,600 -1,680 Descending New York Center
01:38PM 41.4011 -74.0569 201° Southwest 415 478 20,000 -840 Descending New York Center
01:39PM 41.2881 -74.0817 189° South 410 472 20,000 -300 Level New York Center
01:40PM 41.1731 -74.0981 186° South 410 472 19,400 -540 Descending New York Center
01:41PM 41.0683 -74.1150 187° South 421 484 19,000 -240 Descending New York Center
01:41PM 40.9667 -74.1167 181° South 387 445 19,000  Level New York TRACON
01:42PM 40.8833 -74.0667 156° South 360 414 19,000 -360 Level New York TRACON
01:43PM 40.8167 -73.9500 127° Southeast 369 425 18,300 -1,200 Descending New York TRACON
01:44PM 40.7667 -73.8333 119° Southeast 357 411 16,700 -1,860 Descending New York TRACON
01:45PM 40.7167 -73.7500 128° Southeast 359 413 14,800 -2,100 Descending New York TRACON
01:46PM 40.6500 -73.6500 131° Southeast 358 412 12,800 -2,100 Descending New York TRACON
01:47PM 40.6000 -73.5667 128° Southeast 307 353 10,600 -1,500 Descending New York TRACON
01:48PM 40.5333 -73.4833 136° Southeast 266 306 9,900 -1,380 Descending New York TRACON
01:49PM 40.5000 -73.4167 123° Southeast 254 292 7,800 -1,860 Descending New York TRACON
01:50PM 40.5500 -73.3667 37° Northeast 247 284 6,100 -1,440 Descending New York TRACON
01:51PM 40.6167 -73.3833 349° North 231 266 5,000 -1,080 Descending New York TRACON
01:52PM 40.6667 -73.4000 346° North 229 264 4,000 -540 Descending New York TRACON
01:53PM 40.7333 -73.4167 349° North 209 241 4,000 -240 Level New York TRACON
01:54PM 40.7667 -73.4500 323° Northwest 192 221 3,600 -540 Descending New York TRACON
01:55PM 40.7833 -73.5167 288° West 186 214 3,000 -660 Descending New York TRACON
01:56PM 40.7667 -73.5833 252° West 188 216 2,300 -540 Descending New York TRACON
01:57PM 40.7500 -73.6500 252° West 188 216 2,000 -300 Descending New York TRACON
01:58PM 40.7167 -73.6833 217° Southwest 188 216 1,800 -660 Descending New York TRACON
01:59PM 40.6667 -73.7333 217° Southwest 154 177 800 -1,020 Descending New York TRACON
02:01PM 40.6333 -73.7667 288° West  Level FlightAware Approximate
02:08PM 40.6398 -73.7789 288° West  Level Estimated
02:09PM 40.6398 -73.7789 288° West  Level Estimated